Time;durP1;ratioP1;P1;durP2;ratioP2;P2;SDS_P1;SDS_P2;PMS_P1;PMS_P2;Temp;Humidity;BMP_temperature;BMP_pressure;BME280_temperature;BME280_humidity;BME280_pressure;Samples;Min_cycle;Max_cycle;Signal;HPM_P1;HPM_P2
2021/08/23 00:00:17;;;;;;;1.50;1.25;;;18.90;99.90;;;;;;5025896;28;20227;-76
2021/08/23 00:02:44;;;;;;;1.55;1.45;;;18.90;99.90;;;;;;5025792;28;20697;-76
2021/08/23 00:05:12;;;;;;;2.30;1.92;;;18.80;99.90;;;;;;5026697;28;20215;-76
2021/08/23 00:07:39;;;;;;;1.77;1.50;;;18.70;99.90;;;;;;5024826;28;20302;-78
2021/08/23 00:10:09;;;;;;;1.85;1.60;;;18.50;99.90;;;;;;5026424;28;20277;-75
2021/08/23 00:12:36;;;;;;;1.92;1.83;;;18.40;99.90;;;;;;5025964;28;22774;-80
2021/08/23 00:15:05;;;;;;;1.65;1.40;;;18.40;99.90;;;;;;5026365;28;20285;-76
2021/08/23 00:17:32;;;;;;;1.50;1.40;;;18.50;99.90;;;;;;5019539;28;20224;-75
2021/08/23 00:19:59;;;;;;;2.00;1.83;;;18.50;99.90;;;;;;5026994;28;20223;-76
2021/08/23 00:22:31;;;;;;;1.95;1.80;;;18.70;99.90;;;;;;5030543;28;20257;-77
2021/08/23 00:25:00;;;;;;;2.13;1.92;;;18.80;99.90;;;;;;5027465;28;20629;-76
2021/08/23 00:27:27;;;;;;;1.80;1.70;;;18.80;99.90;;;;;;5025142;28;20223;-76
2021/08/23 00:29:55;;;;;;;1.67;1.58;;;18.90;99.90;;;;;;5026574;28;20277;-76
2021/08/23 00:32:23;;;;;;;2.90;1.65;;;18.90;99.90;;;;;;5022198;28;20284;-75
2021/08/23 00:34:51;;;;;;;1.83;1.73;;;18.80;99.90;;;;;;5026108;28;20219;-77
2021/08/23 00:37:18;;;;;;;1.70;1.60;;;18.70;99.90;;;;;;5025271;28;20230;-76
2021/08/23 00:39:45;;;;;;;1.40;1.30;;;18.60;99.90;;;;;;5026007;28;20262;-76
2021/08/23 00:42:12;;;;;;;1.55;1.45;;;18.60;99.90;;;;;;5025039;28;20235;-76
2021/08/23 00:44:42;;;;;;;1.65;1.50;;;18.60;99.90;;;;;;5025173;28;20777;-76
2021/08/23 00:47:09;;;;;;;1.70;1.60;;;18.70;99.90;;;;;;5020114;28;20226;-76
2021/08/23 00:49:38;;;;;;;1.85;1.75;;;18.70;99.90;;;;;;5026746;28;20238;-76
2021/08/23 00:52:08;;;;;;;1.60;1.48;;;18.70;99.90;;;;;;5025208;28;20223;-75
2021/08/23 00:54:35;;;;;;;1.63;1.52;;;18.80;99.90;;;;;;5024673;28;20788;-76
2021/08/23 00:57:03;;;;;;;1.65;1.55;;;18.80;99.90;;;;;;5024782;28;20231;-76
2021/08/23 00:59:34;;;;;;;2.08;1.50;;;18.90;99.90;;;;;;5027307;28;20652;-76
2021/08/23 01:02:08;;;;;;;1.42;1.33;;;18.90;99.90;;;;;;5025577;28;20226;-75
2021/08/23 01:04:45;;;;;;;1.50;1.40;;;18.90;99.90;;;;;;5026136;28;20219;-77
2021/08/23 01:07:15;;;;;;;1.77;1.67;;;18.90;99.90;;;;;;5025195;28;20281;-77
2021/08/23 01:09:47;;;;;;;1.30;1.20;;;18.90;99.90;;;;;;5023935;28;20285;-76
2021/08/23 01:12:15;;;;;;;1.45;1.35;;;18.90;99.90;;;;;;5026376;28;20227;-77
2021/08/23 01:14:43;;;;;;;1.67;1.58;;;18.90;99.90;;;;;;5024717;28;20274;-77
2021/08/23 01:17:10;;;;;;;1.80;1.70;;;18.80;99.90;;;;;;5024049;28;20227;-75
2021/08/23 01:19:41;;;;;;;1.77;1.63;;;18.90;99.90;;;;;;5025213;28;20227;-76
2021/08/23 01:22:12;;;;;;;1.70;1.60;;;18.80;99.90;;;;;;5021172;28;20832;-76
2021/08/23 01:24:40;;;;;;;1.63;1.52;;;18.70;99.90;;;;;;5020676;28;20302;-76
2021/08/23 01:27:11;;;;;;;1.52;1.42;;;18.50;99.90;;;;;;5021237;28;20227;-76
2021/08/23 01:29:48;;;;;;;1.70;1.60;;;18.50;99.90;;;;;;5020766;28;20227;-76
2021/08/23 01:32:19;;;;;;;4.20;1.80;;;18.60;99.90;;;;;;5023171;28;20628;-76
2021/08/23 01:34:49;;;;;;;2.55;1.40;;;18.60;99.90;;;;;;5020079;28;20211;-76
2021/08/23 01:37:16;;;;;;;3.35;1.48;;;18.70;99.90;;;;;;5022450;28;20223;-77
2021/08/23 01:39:45;;;;;;;1.67;1.58;;;18.70;99.90;;;;;;5022789;28;20275;-76
2021/08/23 01:42:12;;;;;;;1.60;1.50;;;18.70;99.90;;;;;;5022651;28;20691;-77
2021/08/23 01:44:40;;;;;;;1.45;1.35;;;18.80;99.90;;;;;;5024757;28;20224;-76
2021/08/23 01:47:07;;;;;;;2.17;1.98;;;18.70;99.90;;;;;;5022199;28;20227;-75
2021/08/23 01:49:36;;;;;;;2.33;2.13;;;18.60;99.90;;;;;;5022582;28;20681;-76
2021/08/23 01:52:03;;;;;;;2.00;1.90;;;18.30;99.90;;;;;;5022060;28;20239;-76
2021/08/23 01:54:30;;;;;;;2.03;1.88;;;18.10;99.90;;;;;;5023286;28;20307;-76
2021/08/23 01:56:58;;;;;;;2.25;1.88;;;18.10;99.90;;;;;;5023557;28;20297;-76
2021/08/23 01:59:25;;;;;;;2.05;1.85;;;18.00;99.90;;;;;;5023911;28;20230;-76
2021/08/23 02:01:52;;;;;;;1.67;1.58;;;18.00;99.90;;;;;;5024574;28;20286;-77
2021/08/23 02:04:19;;;;;;;1.70;1.60;;;18.10;99.90;;;;;;5022643;28;20273;-75
2021/08/23 02:06:47;;;;;;;1.80;1.70;;;18.20;99.90;;;;;;5026943;28;20219;-76
2021/08/23 02:09:15;;;;;;;1.92;1.50;;;18.20;99.90;;;;;;5028094;28;20301;-76
2021/08/23 02:11:41;;;;;;;1.90;1.80;;;18.20;99.90;;;;;;5027516;28;20290;-76
2021/08/23 02:14:09;;;;;;;1.35;1.25;;;18.30;99.90;;;;;;5028361;28;20219;-76
2021/08/23 02:16:39;;;;;;;1.70;1.60;;;18.40;99.90;;;;;;5025751;28;20697;-75
2021/08/23 02:19:07;;;;;;;1.67;1.58;;;18.50;99.90;;;;;;5028059;28;21136;-76
2021/08/23 02:21:47;;;;;;;1.55;1.45;;;18.50;99.90;;;;;;5027766;28;20227;-75
2021/08/23 02:24:14;;;;;;;1.60;1.50;;;18.50;99.90;;;;;;5027579;28;20219;-75
2021/08/23 02:26:41;;;;;;;1.55;1.45;;;18.50;99.90;;;;;;5025941;28;20294;-76
2021/08/23 02:29:08;;;;;;;1.63;1.52;;;18.50;99.90;;;;;;5025245;28;20288;-74
2021/08/23 02:31:35;;;;;;;2.00;1.90;;;18.60;99.90;;;;;;5029405;28;20286;-75
2021/08/23 02:34:02;;;;;;;2.47;1.92;;;18.60;99.90;;;;;;5025422;28;20219;-75
2021/08/23 02:36:29;;;;;;;1.95;1.75;;;18.60;99.90;;;;;;5024548;28;20266;-75
2021/08/23 02:38:58;;;;;;;1.95;1.52;;;18.60;99.90;;;;;;5024870;28;20285;-75
2021/08/23 02:41:25;;;;;;;1.45;1.35;;;18.70;99.90;;;;;;5025215;28;20223;-75
2021/08/23 02:43:52;;;;;;;1.67;1.58;;;18.70;99.90;;;;;;5026037;28;20249;-75
2021/08/23 02:46:20;;;;;;;1.77;1.67;;;18.70;99.90;;;;;;5026737;28;20223;-75
2021/08/23 02:48:47;;;;;;;1.75;1.60;;;18.70;99.90;;;;;;5027446;28;20591;-75
2021/08/23 02:51:14;;;;;;;1.60;1.50;;;18.70;99.90;;;;;;5027140;28;20227;-75
2021/08/23 02:53:41;;;;;;;2.03;1.33;;;18.70;99.90;;;;;;5026523;28;20289;-75
2021/08/23 02:56:10;;;;;;;1.67;1.58;;;18.60;99.90;;;;;;5027707;28;20273;-74
2021/08/23 02:58:37;;;;;;;1.80;1.70;;;18.60;99.90;;;;;;5025860;28;20231;-76
2021/08/23 03:01:04;;;;;;;1.52;1.42;;;18.60;99.90;;;;;;5027202;28;20254;-76
2021/08/23 03:03:31;;;;;;;1.80;1.70;;;18.70;99.90;;;;;;5026187;28;20227;-75
2021/08/23 03:05:58;;;;;;;1.60;1.50;;;18.60;99.90;;;;;;5025872;28;20218;-76
2021/08/23 03:08:25;;;;;;;1.90;1.70;;;18.60;99.90;;;;;;5021490;28;20614;-75
2021/08/23 03:10:54;;;;;;;1.77;1.67;;;18.60;99.90;;;;;;5023608;28;20219;-76
2021/08/23 03:13:23;;;;;;;1.80;1.70;;;18.60;99.90;;;;;;5025328;28;20617;-74
2021/08/23 03:15:50;;;;;;;2.22;1.70;;;18.60;99.90;;;;;;5028036;28;20282;-76
2021/08/23 03:18:17;;;;;;;1.42;1.33;;;18.50;99.90;;;;;;5025129;28;20284;-75
2021/08/23 03:20:44;;;;;;;1.80;1.70;;;18.40;99.90;;;;;;5027397;28;20314;-75
2021/08/23 03:23:11;;;;;;;1.40;1.30;;;18.40;99.90;;;;;;5025557;28;20289;-76
2021/08/23 03:25:38;;;;;;;1.70;1.60;;;18.40;99.90;;;;;;5026608;28;20227;-76
2021/08/23 03:28:05;;;;;;;2.38;1.80;;;18.50;99.90;;;;;;5026899;28;20276;-76
2021/08/23 03:30:34;;;;;;;1.73;1.58;;;18.50;99.90;;;;;;5027541;28;20235;-75
2021/08/23 03:33:01;;;;;;;1.70;1.60;;;18.50;99.90;;;;;;5026762;28;20235;-76
2021/08/23 03:35:28;;;;;;;1.80;1.70;;;18.50;99.90;;;;;;5027389;28;20694;-75
2021/08/23 03:37:55;;;;;;;1.88;1.70;;;18.50;99.90;;;;;;5027009;28;20224;-76
2021/08/23 03:40:22;;;;;;;1.77;1.67;;;18.40;99.90;;;;;;5020949;28;20227;-76
2021/08/23 03:42:49;;;;;;;3.20;2.22;;;18.30;99.90;;;;;;5023743;28;20231;-77
2021/08/23 03:45:16;;;;;;;1.85;1.75;;;18.10;99.90;;;;;;5024691;28;20770;-76
2021/08/23 03:47:45;;;;;;;1.88;1.77;;;18.00;99.90;;;;;;5023871;28;20223;-74
2021/08/23 03:50:12;;;;;;;1.98;1.75;;;17.90;99.90;;;;;;5024650;28;20277;-76
2021/08/23 03:52:39;;;;;;;1.95;1.85;;;17.90;99.90;;;;;;5023072;28;20785;-79
2021/08/23 03:55:08;;;;;;;1.70;1.60;;;18.00;99.90;;;;;;5025052;28;20242;-76
2021/08/23 03:57:36;;;;;;;2.05;1.70;;;18.00;99.90;;;;;;5022412;28;20224;-76
2021/08/23 04:00:05;;;;;;;1.65;1.55;;;18.10;99.90;;;;;;5024823;28;20227;-77
2021/08/23 04:02:33;;;;;;;1.52;1.42;;;18.20;99.90;;;;;;5025328;28;20258;-75
2021/08/23 04:05:02;;;;;;;1.70;1.60;;;18.20;99.90;;;;;;5042847;22;20246;-76
2021/08/23 04:07:29;;;;;;;2.03;1.92;;;18.20;99.90;;;;;;5002239;28;20232;-76
2021/08/23 04:09:56;;;;;;;1.77;1.67;;;18.30;99.90;;;;;;5001649;28;20235;-75
2021/08/23 04:12:23;;;;;;;1.70;1.60;;;18.20;99.90;;;;;;4997037;28;20314;-76
2021/08/23 04:14:50;;;;;;;1.92;1.83;;;18.10;99.90;;;;;;4995844;28;20714;-76
2021/08/23 04:17:17;;;;;;;2.10;1.90;;;18.10;99.90;;;;;;4998412;28;20280;-77
2021/08/23 04:19:44;;;;;;;2.10;1.98;;;18.10;99.90;;;;;;4999576;28;20266;-77
2021/08/23 04:22:12;;;;;;;1.80;1.70;;;18.00;99.90;;;;;;4999113;28;21050;-76
2021/08/23 04:24:40;;;;;;;2.80;1.80;;;17.90;99.90;;;;;;5000275;28;20270;-76
2021/08/23 04:27:07;;;;;;;2.30;2.08;;;17.90;99.90;;;;;;5000566;28;20228;-76
2021/08/23 04:29:35;;;;;;;1.70;1.60;;;17.90;99.90;;;;;;4997861;28;20773;-75
2021/08/23 04:32:02;;;;;;;1.70;1.60;;;18.00;99.90;;;;;;5000697;28;20228;-77
2021/08/23 04:34:29;;;;;;;1.60;1.50;;;18.00;99.90;;;;;;4999408;28;20275;-76
2021/08/23 04:36:57;;;;;;;1.60;1.50;;;18.00;99.90;;;;;;5001612;28;20710;-76
2021/08/23 04:39:25;;;;;;;1.73;1.63;;;18.10;99.90;;;;;;4999051;28;20239;-76
2021/08/23 04:41:52;;;;;;;1.70;1.60;;;18.00;99.90;;;;;;4999009;28;20261;-76
2021/08/23 04:44:19;;;;;;;1.85;1.75;;;18.00;99.90;;;;;;4998228;28;20360;-76
2021/08/23 04:46:49;;;;;;;3.15;1.70;;;18.00;99.90;;;;;;5000537;28;20279;-76
2021/08/23 04:49:16;;;;;;;1.70;1.60;;;17.90;99.90;;;;;;4998670;28;20230;-75
2021/08/23 04:51:43;;;;;;;1.75;1.65;;;17.90;99.90;;;;;;4999463;28;20224;-76
2021/08/23 04:54:12;;;;;;;2.95;2.15;;;17.90;99.90;;;;;;4998754;28;20300;-76
2021/08/23 04:56:40;;;;;;;2.40;2.00;;;17.80;99.90;;;;;;4998995;28;20847;-76
2021/08/23 04:59:07;;;;;;;1.65;1.55;;;17.70;99.90;;;;;;4997823;28;20285;-76
2021/08/23 05:01:34;;;;;;;2.30;2.20;;;17.70;99.90;;;;;;5000712;28;20282;-76
2021/08/23 05:04:01;;;;;;;1.80;1.70;;;17.80;99.90;;;;;;5000811;28;20231;-76
2021/08/23 05:06:28;;;;;;;2.00;1.80;;;17.70;99.90;;;;;;5002223;28;20240;-75
2021/08/23 05:08:55;;;;;;;1.88;1.77;;;17.70;99.90;;;;;;4998001;28;20772;-76
2021/08/23 05:11:22;;;;;;;1.80;1.70;;;17.80;99.90;;;;;;5001294;28;20224;-76
2021/08/23 05:13:51;;;;;;;1.80;1.70;;;17.90;99.90;;;;;;5002606;28;20563;-76
2021/08/23 05:16:18;;;;;;;1.83;1.73;;;17.90;99.90;;;;;;5001915;28;20228;-76
2021/08/23 05:18:45;;;;;;;1.73;1.63;;;18.00;99.90;;;;;;5004647;28;20649;-76
2021/08/23 05:21:12;;;;;;;2.03;1.65;;;18.00;99.90;;;;;;5002211;28;20224;-75
2021/08/23 05:23:39;;;;;;;1.90;1.80;;;18.10;99.90;;;;;;5000746;28;20702;-75
2021/08/23 05:26:07;;;;;;;1.70;1.60;;;18.10;99.90;;;;;;5002363;28;20295;-75
2021/08/23 05:28:34;;;;;;;2.17;1.98;;;18.00;99.90;;;;;;5001058;28;21021;-75
2021/08/23 05:31:03;;;;;;;1.92;1.83;;;18.00;99.90;;;;;;5003073;28;20224;-75
2021/08/23 05:33:30;;;;;;;2.08;1.80;;;18.00;99.90;;;;;;5001645;28;20227;-76
2021/08/23 05:35:57;;;;;;;1.80;1.70;;;17.90;99.90;;;;;;5002805;28;20236;-76
2021/08/23 05:38:24;;;;;;;2.03;1.60;;;17.90;99.90;;;;;;5002043;28;20239;-75
2021/08/23 05:40:51;;;;;;;2.10;1.60;;;18.00;99.90;;;;;;5004298;28;20294;-75
2021/08/23 05:43:18;;;;;;;1.60;1.50;;;18.10;99.90;;;;;;5004243;28;20220;-76
2021/08/23 05:45:45;;;;;;;2.28;1.80;;;18.10;99.90;;;;;;5005735;28;20228;-77
2021/08/23 05:48:16;;;;;;;1.67;1.58;;;18.10;99.90;;;;;;5003320;28;20634;-76
2021/08/23 05:50:43;;;;;;;1.70;1.60;;;18.20;99.90;;;;;;5003115;28;20691;-76
2021/08/23 05:53:10;;;;;;;2.35;1.90;;;18.30;99.90;;;;;;5002322;28;20224;-76
2021/08/23 05:55:37;;;;;;;2.15;1.90;;;18.40;99.90;;;;;;5002401;28;20240;-75
2021/08/23 05:58:04;;;;;;;2.08;1.83;;;18.80;99.90;;;;;;5003358;28;20216;-76
2021/08/23 06:00:31;;;;;;;4.72;2.35;;;19.30;99.90;;;;;;5003091;28;20593;-76
2021/08/23 06:02:58;;;;;;;2.17;1.90;;;19.50;99.90;;;;;;5002799;28;20220;-76
2021/08/23 06:05:26;;;;;;;1.95;1.83;;;19.40;99.90;;;;;;5004546;28;20705;-76
2021/08/23 06:07:53;;;;;;;2.05;1.95;;;19.30;99.90;;;;;;5005735;28;20395;-75
2021/08/23 06:10:20;;;;;;;2.10;2.00;;;19.10;99.90;;;;;;5005448;28;20267;-76
2021/08/23 06:12:47;;;;;;;2.53;2.10;;;18.90;99.90;;;;;;5003188;28;20222;-76
2021/08/23 06:15:14;;;;;;;4.20;2.13;;;18.80;99.90;;;;;;5002369;28;20232;-75
2021/08/23 06:17:42;;;;;;;2.40;2.20;;;18.80;99.90;;;;;;5005859;28;20220;-76
2021/08/23 06:20:10;;;;;;;1.70;1.60;;;18.90;99.90;;;;;;5003629;28;20228;-76
2021/08/23 06:22:38;;;;;;;3.13;2.20;;;19.00;99.90;;;;;;5004294;28;20312;-76
2021/08/23 06:25:07;;;;;;;2.08;1.88;;;19.00;99.90;;;;;;4999686;28;20232;-76
2021/08/23 06:27:34;;;;;;;2.30;2.10;;;19.00;99.90;;;;;;5000712;28;20227;-77
2021/08/23 06:30:02;;;;;;;2.10;2.00;;;19.00;99.90;;;;;;4999499;28;20235;-76
2021/08/23 06:32:29;;;;;;;2.65;2.25;;;19.00;99.90;;;;;;5002312;28;20216;-76
2021/08/23 06:34:56;;;;;;;3.90;2.17;;;18.90;99.90;;;;;;5000027;28;20228;-77
2021/08/23 06:37:23;;;;;;;2.85;2.60;;;18.70;99.90;;;;;;4992012;28;20294;-76
2021/08/23 06:39:52;;;;;;;2.50;1.98;;;18.60;99.90;;;;;;4993244;28;20302;-77
2021/08/23 06:42:19;;;;;;;3.45;2.00;;;18.50;99.90;;;;;;4993093;28;20282;-76
2021/08/23 06:44:46;;;;;;;2.38;2.10;;;18.50;99.90;;;;;;4994857;28;20655;-76
2021/08/23 06:47:16;;;;;;;1.98;1.88;;;18.70;99.90;;;;;;4996026;28;20238;-75
2021/08/23 06:49:43;;;;;;;2.30;2.10;;;19.00;99.90;;;;;;4990052;28;20313;-75
2021/08/23 06:52:10;;;;;;;1.90;1.77;;;19.00;99.90;;;;;;4994274;28;20227;-76
2021/08/23 06:54:37;;;;;;;1.80;1.70;;;19.10;99.90;;;;;;4993767;28;20239;-77
2021/08/23 06:57:06;;;;;;;3.10;1.85;;;19.20;99.90;;;;;;4993661;28;20220;-78
2021/08/23 06:59:33;;;;;;;1.58;1.48;;;19.30;99.90;;;;;;4992151;28;20603;-77
2021/08/23 07:02:00;;;;;;;1.75;1.65;;;19.30;99.90;;;;;;4995472;28;20268;-77
2021/08/23 07:04:28;;;;;;;2.03;1.80;;;19.30;99.90;;;;;;4989915;28;20789;-77
2021/08/23 07:06:56;;;;;;;2.03;1.92;;;19.30;99.90;;;;;;4995158;28;20238;-77
2021/08/23 07:09:23;;;;;;;2.10;1.90;;;19.30;99.90;;;;;;4992040;28;20228;-77
2021/08/23 07:11:50;;;;;;;2.20;2.00;;;19.20;99.90;;;;;;4995473;28;20235;-77
2021/08/23 07:14:18;;;;;;;2.30;2.10;;;19.30;99.90;;;;;;4994483;28;20733;-77
2021/08/23 07:16:45;;;;;;;2.33;1.90;;;19.30;99.90;;;;;;4994992;28;20236;-77
2021/08/23 07:19:12;;;;;;;2.30;2.10;;;19.30;99.90;;;;;;4993446;28;20220;-76
2021/08/23 07:21:39;;;;;;;2.25;2.08;;;19.20;99.90;;;;;;4992297;28;20232;-76
2021/08/23 07:24:09;;;;;;;1.85;1.75;;;19.20;99.90;;;;;;4993775;28;21161;-76
2021/08/23 07:26:36;;;;;;;1.80;1.70;;;19.20;99.90;;;;;;4993119;28;20255;-76
2021/08/23 07:29:03;;;;;;;2.97;1.73;;;19.30;99.90;;;;;;4996642;28;20789;-76
2021/08/23 07:31:32;;;;;;;1.75;1.65;;;19.40;99.90;;;;;;4993364;28;20231;-76
2021/08/23 07:33:59;;;;;;;2.33;1.67;;;19.60;99.90;;;;;;4995265;28;20278;-77
2021/08/23 07:36:26;;;;;;;1.70;1.60;;;19.70;99.90;;;;;;4994024;28;21566;-77
2021/08/23 07:38:53;;;;;;;1.80;1.70;;;19.70;99.90;;;;;;4996077;28;20274;-76
2021/08/23 07:41:20;;;;;;;1.45;1.35;;;19.80;99.90;;;;;;4996415;28;20278;-76
2021/08/23 07:43:47;;;;;;;1.50;1.40;;;20.10;99.90;;;;;;4992649;28;20235;-77
2021/08/23 07:46:14;;;;;;;1.63;1.52;;;20.30;99.90;;;;;;4997745;28;20231;-76
2021/08/23 07:48:44;;;;;;;3.15;1.52;;;20.50;99.90;;;;;;4993978;28;20875;-78
2021/08/23 07:51:11;;;;;;;2.00;1.55;;;20.60;99.90;;;;;;4993946;28;20286;-77
2021/08/23 07:53:38;;;;;;;1.60;1.50;;;20.60;99.90;;;;;;4992837;28;20845;-76
2021/08/23 07:56:07;;;;;;;2.22;1.60;;;20.60;99.90;;;;;;4995346;28;20277;-76
2021/08/23 07:58:34;;;;;;;1.60;1.50;;;20.60;99.90;;;;;;4993518;28;20522;-76
2021/08/23 08:01:01;;;;;;;2.88;1.80;;;20.60;99.90;;;;;;4996828;28;20286;-77
2021/08/23 08:03:28;;;;;;;2.60;1.60;;;20.60;99.90;;;;;;4993495;28;20244;-78
2021/08/23 08:05:56;;;;;;;1.77;1.67;;;20.60;99.90;;;;;;4995369;28;20745;-78
2021/08/23 08:08:23;;;;;;;1.30;1.20;;;20.50;99.90;;;;;;4989142;28;20231;-76
2021/08/23 08:10:50;;;;;;;1.48;1.38;;;20.50;99.90;;;;;;4994626;28;20216;-77
2021/08/23 08:13:17;;;;;;;1.45;1.35;;;20.50;99.90;;;;;;4992920;28;20290;-77
2021/08/23 08:15:44;;;;;;;1.50;1.25;;;20.60;99.90;;;;;;4989125;28;20286;-78
2021/08/23 08:18:11;;;;;;;1.40;1.30;;;20.70;99.90;;;;;;4992889;28;20283;-77
2021/08/23 08:20:38;;;;;;;3.83;1.60;;;20.80;99.90;;;;;;4991195;28;20271;-77
2021/08/23 08:23:07;;;;;;;1.40;1.30;;;20.80;99.90;;;;;;4992551;28;20278;-76
2021/08/23 08:25:34;;;;;;;1.60;1.50;;;20.80;99.90;;;;;;4988707;28;20654;-76
2021/08/23 08:28:01;;;;;;;1.58;1.48;;;20.90;99.90;;;;;;4990572;28;20223;-77
2021/08/23 08:30:28;;;;;;;1.40;1.30;;;20.90;99.90;;;;;;4988815;28;20306;-76
2021/08/23 08:32:55;;;;;;;2.55;1.40;;;20.90;99.90;;;;;;4990491;28;20231;-77
2021/08/23 08:35:23;;;;;;;8.63;1.63;;;21.10;99.90;;;;;;4986620;28;20317;-74
2021/08/23 08:37:52;;;;;;;2.65;1.40;;;21.40;99.90;;;;;;4968127;28;20302;-76
2021/08/23 08:40:20;;;;;;;1.85;1.40;;;21.70;99.90;;;;;;4985024;28;20224;-75
2021/08/23 08:42:48;;;;;;;1.55;1.45;;;22.00;99.90;;;;;;4993906;28;20240;-74
2021/08/23 08:45:15;;;;;;;1.25;1.15;;;22.10;99.90;;;;;;4991434;28;20235;-77
2021/08/23 08:47:44;;;;;;;1.45;1.25;;;22.10;99.90;;;;;;4990832;28;20219;-76
2021/08/23 08:50:15;;;;;;;1.25;1.15;;;22.00;99.90;;;;;;4988046;28;20459;-76
2021/08/23 08:52:44;;;;;;;1.30;1.20;;;21.80;99.90;;;;;;4986101;28;20224;-76
2021/08/23 08:55:12;;;;;;;1.35;1.25;;;21.60;99.90;;;;;;4992303;28;20307;-75
2021/08/23 08:57:41;;;;;;;1.00;1.00;;;21.50;99.90;;;;;;4986262;28;20248;-76
2021/08/23 09:00:10;;;;;;;1.40;1.30;;;21.50;99.90;;;;;;4990475;28;20227;-74
2021/08/23 09:02:38;;;;;;;1.17;1.08;;;21.50;99.90;;;;;;4984398;28;20281;-76
2021/08/23 09:05:14;;;;;;;2.25;1.15;;;21.70;99.90;;;;;;4988618;28;20230;-77
2021/08/23 09:07:46;;;;;;;1.38;1.27;;;21.90;99.90;;;;;;4985631;28;20230;-74
2021/08/23 09:10:24;;;;;;;1.20;1.10;;;22.10;99.90;;;;;;4987086;28;20220;-74
2021/08/23 09:13:04;;;;;;;1.50;1.40;;;22.20;99.90;;;;;;4989874;28;20231;-74
2021/08/23 09:15:32;;;;;;;1.15;1.15;;;22.10;99.90;;;;;;4990210;28;20815;-74
2021/08/23 09:18:04;;;;;;;1.05;1.00;;;22.10;99.90;;;;;;4986578;28;20824;-75
2021/08/23 09:20:32;;;;;;;1.30;1.20;;;22.10;99.90;;;;;;4986921;28;20233;-75
2021/08/23 09:23:10;;;;;;;1.63;1.20;;;21.90;99.90;;;;;;4994182;28;20220;-76
2021/08/23 09:25:37;;;;;;;1.50;1.40;;;21.90;99.90;;;;;;4992156;28;20228;-76
2021/08/23 09:28:07;;;;;;;1.52;1.42;;;22.10;99.90;;;;;;4991276;28;20227;-76
2021/08/23 09:30:34;;;;;;;1.50;1.40;;;22.20;99.90;;;;;;4988735;28;20235;-75
2021/08/23 09:33:02;;;;;;;2.78;1.20;;;22.30;99.90;;;;;;4991619;28;20223;-75
2021/08/23 09:35:31;;;;;;;1.63;1.50;;;22.50;99.90;;;;;;4996810;28;20227;-75
2021/08/23 09:38:01;;;;;;;1.55;1.40;;;22.50;99.90;;;;;;4990172;28;20238;-75
2021/08/23 09:40:32;;;;;;;3.53;1.30;;;22.60;99.90;;;;;;4984475;28;20227;-76
2021/08/23 09:43:03;;;;;;;2.33;1.20;;;22.70;99.90;;;;;;4987329;28;20278;-76
2021/08/23 09:45:32;;;;;;;1.20;1.10;;;22.80;99.90;;;;;;4987962;28;20274;-73
2021/08/23 09:48:00;;;;;;;2.05;1.17;;;22.90;99.90;;;;;;4990920;28;20216;-74
2021/08/23 09:50:43;;;;;;;1.10;1.00;;;23.00;99.90;;;;;;4988208;28;20236;-75
2021/08/23 09:53:12;;;;;;;1.45;1.33;;;23.20;99.90;;;;;;4989394;28;20235;-76
2021/08/23 09:55:45;;;;;;;1.88;1.30;;;23.30;99.90;;;;;;4988192;28;20290;-76
2021/08/23 09:58:13;;;;;;;1.67;1.10;;;23.40;99.90;;;;;;4987643;28;20231;-74
2021/08/23 10:00:42;;;;;;;1.30;1.10;;;23.40;99.90;;;;;;4988624;28;21208;-76
2021/08/23 10:03:14;;;;;;;0.90;0.90;;;23.50;99.90;;;;;;4988720;28;20235;-76
2021/08/23 10:05:44;;;;;;;1.02;1.00;;;23.80;99.90;;;;;;5083486;22;20207;-70
2021/08/23 10:08:13;;;;;;;1.08;1.05;;;24.10;99.90;;;;;;4988729;28;20228;-71
2021/08/23 10:10:42;;;;;;;1.20;1.10;;;24.50;99.90;;;;;;4989615;28;20316;-72
2021/08/23 10:13:10;;;;;;;1.35;1.00;;;25.00;99.90;;;;;;4992944;28;20700;-72
2021/08/23 10:15:38;;;;;;;0.98;0.98;;;25.00;99.90;;;;;;5000298;28;20240;-72
2021/08/23 10:18:08;;;;;;;1.27;1.17;;;25.00;99.90;;;;;;4992657;28;20224;-71
2021/08/23 10:20:36;;;;;;;1.00;1.00;;;25.00;99.90;;;;;;4994828;28;20223;-72
2021/08/23 10:23:05;;;;;;;0.93;0.93;;;25.10;99.90;;;;;;4984643;28;20228;-72
2021/08/23 10:25:33;;;;;;;0.82;0.82;;;25.10;99.90;;;;;;4982920;28;20236;-71
2021/08/23 10:28:12;;;;;;;0.70;0.70;;;25.40;99.90;;;;;;5000598;28;20315;-71
2021/08/23 10:30:40;;;;;;;1.15;1.08;;;25.30;99.90;;;;;;4992400;28;20281;-72
2021/08/23 10:33:16;;;;;;;0.77;0.77;;;25.40;99.90;;;;;;5002656;28;20258;-72
2021/08/23 10:35:49;;;;;;;1.05;0.90;;;25.20;99.90;;;;;;4994325;28;20228;-73
2021/08/23 10:38:18;;;;;;;0.80;0.80;;;25.00;99.90;;;;;;5001366;28;20792;-72
2021/08/23 10:40:47;;;;;;;1.00;1.00;;;25.30;99.90;;;;;;4995892;28;20224;-71
2021/08/23 10:43:17;;;;;;;1.67;1.00;;;25.80;99.90;;;;;;4997790;28;20231;-72
2021/08/23 10:45:44;;;;;;;1.13;1.02;;;26.20;99.90;;;;;;4995026;28;20307;-72
2021/08/23 10:48:18;;;;;;;2.15;0.88;;;26.60;99.90;;;;;;4995206;28;20244;-71
2021/08/23 10:50:58;;;;;;;1.60;1.00;;;26.70;99.90;;;;;;4991649;28;20701;-71
2021/08/23 10:53:34;;;;;;;0.80;0.80;;;26.70;99.90;;;;;;4991995;28;20216;-70
2021/08/23 10:56:15;;;;;;;1.10;0.90;;;26.60;99.90;;;;;;4995861;28;20252;-71
2021/08/23 10:58:42;;;;;;;1.10;1.00;;;26.40;99.90;;;;;;4996510;28;20243;-72
2021/08/23 11:01:21;;;;;;;2.45;1.02;;;26.40;99.90;;;;;;4992588;28;20283;-72
2021/08/23 11:04:02;;;;;;;0.80;0.80;;;26.40;99.90;;;;;;4997166;28;20230;-72
2021/08/23 11:06:29;;;;;;;1.00;0.80;;;26.60;99.90;;;;;;4987811;28;20293;-72
2021/08/23 11:09:07;;;;;;;0.93;0.88;;;26.70;99.90;;;;;;4993321;28;20393;-71
2021/08/23 11:11:36;;;;;;;1.77;0.80;;;26.80;99.90;;;;;;4987001;28;20231;-72
2021/08/23 11:14:03;;;;;;;1.23;0.90;;;26.60;99.90;;;;;;4994860;28;20227;-73
2021/08/23 11:16:32;;;;;;;0.80;0.80;;;26.60;99.90;;;;;;4997582;28;20260;-72
2021/08/23 11:19:06;;;;;;;1.05;0.95;;;26.70;99.90;;;;;;4994095;28;20303;-74
2021/08/23 11:21:33;;;;;;;1.63;1.05;;;26.40;99.90;;;;;;4995859;28;20299;-72
2021/08/23 11:24:06;;;;;;;0.90;0.70;;;26.40;99.90;;;;;;4991476;28;20282;-74
2021/08/23 11:26:33;;;;;;;1.48;0.90;;;26.60;99.90;;;;;;5001745;28;20220;-74
2021/08/23 11:29:09;;;;;;;1.10;0.70;;;26.40;99.90;;;;;;4992563;28;20219;-73
2021/08/23 11:31:36;;;;;;;2.33;1.10;;;26.40;99.90;;;;;;4994454;28;20709;-72
2021/08/23 11:34:05;;;;;;;0.80;0.80;;;26.80;99.90;;;;;;4992694;28;20225;-72
2021/08/23 11:36:35;;;;;;;0.93;0.80;;;27.20;99.90;;;;;;4995388;28;20464;-72
2021/08/23 11:39:11;;;;;;;0.75;0.75;;;27.40;99.90;;;;;;4999591;28;20724;-74
2021/08/23 11:41:38;;;;;;;0.73;0.73;;;27.40;99.90;;;;;;4996454;28;20689;-74
2021/08/23 11:44:06;;;;;;;0.80;0.80;;;27.50;99.90;;;;;;4994443;28;20220;-72
2021/08/23 11:46:33;;;;;;;1.00;1.00;;;27.40;99.90;;;;;;4992166;28;20359;-73
2021/08/23 11:49:00;;;;;;;1.30;0.95;;;27.50;99.90;;;;;;4993125;28;20227;-73
2021/08/23 11:51:30;;;;;;;1.10;1.00;;;27.60;99.90;;;;;;4997361;28;20227;-73
2021/08/23 11:53:57;;;;;;;1.50;1.10;;;27.60;99.90;;;;;;4998696;28;21574;-73
2021/08/23 11:56:24;;;;;;;0.93;0.82;;;27.80;99.90;;;;;;4993394;28;20229;-74
2021/08/23 11:58:52;;;;;;;1.25;1.02;;;27.80;99.90;;;;;;4997762;28;20282;-73
2021/08/23 12:01:19;;;;;;;1.75;1.02;;;27.70;99.90;;;;;;4992297;28;20228;-74
2021/08/23 12:03:47;;;;;;;1.98;1.10;;;27.70;99.90;;;;;;4998216;28;20705;-73
2021/08/23 12:06:16;;;;;;;0.98;0.95;;;27.80;99.90;;;;;;4993365;28;20221;-73
2021/08/23 12:08:45;;;;;;;1.65;1.13;;;27.90;99.90;;;;;;4995006;28;20247;-74
2021/08/23 12:11:13;;;;;;;1.13;0.80;;;28.00;99.90;;;;;;4993410;28;20229;-73
2021/08/23 12:13:42;;;;;;;2.15;0.90;;;27.80;99.90;;;;;;4996667;28;20804;-72
2021/08/23 12:16:11;;;;;;;1.30;1.05;;;27.50;99.90;;;;;;5000286;28;20545;-72
2021/08/23 12:18:40;;;;;;;1.08;0.93;;;27.30;99.90;;;;;;4992290;28;20227;-71
2021/08/23 12:21:16;;;;;;;0.77;0.77;;;27.00;99.90;;;;;;4993962;28;20335;-71
2021/08/23 12:23:57;;;;;;;0.63;0.63;;;27.00;99.90;;;;;;4991899;28;20644;-75
2021/08/23 12:26:31;;;;;;;1.25;0.80;;;27.40;99.90;;;;;;4992187;28;20678;-71
2021/08/23 12:29:00;;;;;;;0.70;0.70;;;27.50;99.90;;;;;;4991567;28;20227;-74
2021/08/23 12:31:28;;;;;;;1.10;1.00;;;27.70;99.90;;;;;;4992754;28;20265;-73
2021/08/23 12:33:55;;;;;;;1.23;1.00;;;28.10;99.90;;;;;;4990801;28;20691;-71
2021/08/23 12:36:22;;;;;;;1.50;0.90;;;28.00;99.90;;;;;;4995599;28;20238;-71
2021/08/23 12:38:49;;;;;;;0.77;0.77;;;28.00;99.90;;;;;;4991180;28;20255;-72
2021/08/23 12:41:18;;;;;;;0.80;0.80;;;28.20;99.90;;;;;;4995331;28;20698;-70
2021/08/23 12:43:45;;;;;;;1.73;0.90;;;28.30;99.90;;;;;;4987920;28;22299;-71
2021/08/23 12:46:12;;;;;;;0.90;0.90;;;28.40;99.90;;;;;;4990230;28;20660;-74
2021/08/23 12:48:39;;;;;;;0.93;0.93;;;28.50;99.90;;;;;;4990189;28;20224;-73
2021/08/23 12:51:06;;;;;;;1.38;0.95;;;28.60;99.90;;;;;;4990793;28;20235;-70
2021/08/23 12:53:33;;;;;;;0.77;0.77;;;28.70;99.90;;;;;;4995038;28;20239;-74